Time;durP1;ratioP1;P1;durP2;ratioP2;P2;SDS_P1;SDS_P2;PMS_P1;PMS_P2;Temp;Humidity;BMP_temperature;BMP_pressure;BME280_temperature;BME280_humidity;BME280_pressure;Samples;Min_cycle;Max_cycle;Signal;HPM_P1;HPM_P2
2021/07/14 00:00:07;;;;;;;4.97;3.23;;;;;;;16.69;70.86;96189.69;5102893;28;20452;-68
2021/07/14 00:02:32;;;;;;;3.50;3.20;;;;;;;16.67;71.48;96183.78;5095970;28;20263;-67
2021/07/14 00:04:58;;;;;;;6.50;3.40;;;;;;;16.63;71.39;96169.41;5095181;28;20423;-67
2021/07/14 00:07:23;;;;;;;4.83;3.60;;;;;;;16.54;71.82;96170.69;5094079;28;20260;-66
2021/07/14 00:09:49;;;;;;;7.80;3.33;;;;;;;16.43;72.43;96157.13;5094218;28;20182;-67
2021/07/14 00:12:16;;;;;;;3.90;3.53;;;;;;;16.52;72.20;96149.75;5091826;28;20235;-68
2021/07/14 00:22:35;;;;;;;4.93;3.43;;;;;;;16.50;72.66;96140.41;5099940;28;20431;-67
2021/07/14 00:25:03;;;;;;;3.97;3.67;;;;;;;16.66;71.93;96150.44;5097346;28;20554;-68
2021/07/14 00:27:29;;;;;;;4.90;4.00;;;;;;;16.74;71.48;96144.06;5097345;28;20560;-67
2021/07/14 00:29:59;;;;;;;3.23;2.93;;;;;;;16.79;71.08;96143.41;5098736;28;20521;-67
2021/07/14 00:32:26;;;;;;;3.40;3.13;;;;;;;16.77;71.09;96141.00;5097539;28;20467;-66
2021/07/14 00:34:53;;;;;;;4.10;3.37;;;;;;;16.89;70.57;96139.25;5098350;28;20423;-66
2021/07/14 00:37:19;;;;;;;6.87;3.60;;;;;;;16.66;71.69;96134.56;5098499;28;20448;-67
2021/07/14 00:39:46;;;;;;;3.73;3.43;;;;;;;16.53;71.83;96129.38;5098258;28;20508;-68
2021/07/14 00:42:12;;;;;;;7.33;4.73;;;;;;;16.65;71.62;96125.00;5097723;28;20427;-66
2021/07/14 00:44:37;;;;;;;4.30;3.60;;;;;;;16.64;71.67;96119.94;5091452;28;20423;-66
2021/07/14 00:47:05;;;;;;;5.70;4.23;;;;;;;16.34;72.32;96110.84;5098845;28;21005;-66
2021/07/14 00:49:31;;;;;;;8.00;4.23;;;;;;;16.27;72.64;96096.84;5099478;28;20193;-65
2021/07/14 00:51:57;;;;;;;4.00;3.50;;;;;;;16.43;72.21;96090.22;5097131;28;20459;-67
2021/07/14 00:54:22;;;;;;;7.33;4.10;;;;;;;16.11;73.58;96087.63;5098669;28;20424;-66
2021/07/14 00:56:48;;;;;;;4.03;3.70;;;;;;;16.17;73.29;96075.38;5098854;28;20182;-66
2021/07/14 00:59:14;;;;;;;6.17;4.00;;;;;;;16.10;73.35;96083.34;5096403;28;20181;-67
2021/07/14 01:01:40;;;;;;;6.70;4.10;;;;;;;16.15;73.24;96080.91;5098969;28;20182;-68
2021/07/14 01:04:15;;;;;;;4.70;4.00;;;;;;;16.37;72.77;96091.91;5102994;28;20215;-67
2021/07/14 01:07:00;;;;;;;4.47;4.17;;;;;;;16.59;71.56;96112.66;5098321;28;20415;-67
2021/07/14 01:09:48;;;;;;;8.53;3.77;;;;;;;16.81;70.70;96133.41;5079647;28;20457;-66
2021/07/14 01:12:26;;;;;;;5.87;3.97;;;;;;;16.85;70.14;96137.25;5094189;28;20475;-67
2021/07/14 01:15:02;;;;;;;5.67;4.17;;;;;;;16.91;69.93;96141.66;5091413;28;20423;-67
2021/07/14 01:17:28;;;;;;;3.97;3.57;;;;;;;16.95;69.36;96161.41;5090162;28;20415;-65
2021/07/14 01:19:54;;;;;;;6.00;3.60;;;;;;;16.93;69.24;96171.38;5098583;28;20450;-66
2021/07/14 01:22:28;;;;;;;3.90;3.60;;;;;;;16.79;69.72;96169.88;5097571;28;20495;-66
2021/07/14 01:25:04;;;;;;;4.20;3.80;;;;;;;16.58;70.89;96185.09;5098100;28;20173;-66
2021/07/14 01:27:34;;;;;;;6.90;3.83;;;;;;;16.66;70.49;96199.91;5096720;28;20423;-67
2021/07/14 01:30:02;;;;;;;9.90;3.80;;;;;;;16.72;70.05;96197.19;5098157;28;20412;-67
2021/07/14 01:32:29;;;;;;;4.53;4.00;;;;;;;16.76;69.60;96208.16;5097759;28;20470;-66
2021/07/14 01:34:58;;;;;;;4.80;3.80;;;;;;;16.76;69.78;96207.34;5096374;28;20822;-67
2021/07/14 01:37:26;;;;;;;3.50;3.20;;;;;;;16.78;69.84;96202.63;5100073;28;20415;-65
2021/07/14 01:39:52;;;;;;;4.47;3.77;;;;;;;16.62;70.25;96210.09;5098840;28;20777;-66
2021/07/14 01:42:19;;;;;;;4.27;3.70;;;;;;;16.66;70.16;96203.34;5101325;28;20438;-66
2021/07/14 01:44:45;;;;;;;4.50;4.10;;;;;;;16.74;70.14;96211.03;5091014;28;21032;-66
2021/07/14 01:47:11;;;;;;;6.87;4.13;;;;;;;16.79;69.84;96214.84;5095968;28;20489;-67
2021/07/14 01:49:38;;;;;;;7.30;3.37;;;;;;;16.79;70.07;96215.66;5078984;28;20468;-67
2021/07/14 01:52:09;;;;;;;5.07;4.07;;;;;;;16.84;69.81;96209.72;5096406;28;20209;-67
2021/07/14 01:54:36;;;;;;;3.80;3.43;;;;;;;16.81;69.69;96204.84;5096060;28;20450;-68
2021/07/14 01:57:03;;;;;;;6.77;4.13;;;;;;;16.88;69.38;96195.03;5094452;28;20430;-67
2021/07/14 01:59:31;;;;;;;4.30;3.90;;;;;;;16.62;70.20;96196.06;5096179;28;20503;-67
2021/07/14 02:02:00;;;;;;;4.17;3.80;;;;;;;16.76;69.69;96202.06;5095029;28;20419;-68
2021/07/14 02:04:32;;;;;;;4.70;3.83;;;;;;;16.77;69.31;96187.78;5094505;28;20411;-67
2021/07/14 02:06:59;;;;;;;8.20;3.50;;;;;;;16.79;69.24;96191.84;5078626;28;20910;-67
2021/07/14 02:09:24;;;;;;;8.03;3.70;;;;;;;16.39;70.89;96187.66;5094533;28;20426;-67
2021/07/14 02:11:52;;;;;;;7.30;3.60;;;;;;;16.78;69.49;96186.75;5096023;28;20463;-66
2021/07/14 02:14:20;;;;;;;4.73;3.70;;;;;;;16.78;69.02;96194.69;5086516;28;20263;-69
2021/07/14 02:16:47;;;;;;;10.80;4.00;;;;;;;16.90;69.12;96187.66;5079603;28;20423;-68
2021/07/14 02:19:15;;;;;;;4.10;3.80;;;;;;;17.00;68.68;96188.03;5096744;28;20781;-67
2021/07/14 02:21:41;;;;;;;5.97;3.80;;;;;;;17.02;68.41;96179.88;5097386;28;20519;-67
2021/07/14 02:24:10;;;;;;;4.40;4.10;;;;;;;16.95;68.57;96177.28;5096294;28;20454;-67
2021/07/14 02:26:36;;;;;;;6.63;3.97;;;;;;;16.50;70.25;96174.78;5097503;28;20188;-67
2021/07/14 02:29:04;;;;;;;5.40;3.93;;;;;;;16.86;68.92;96170.63;5097613;28;20439;-66
2021/07/14 02:31:30;;;;;;;3.90;3.60;;;;;;;16.89;68.75;96170.16;5097235;28;20506;-67
2021/07/14 02:33:55;;;;;;;4.73;3.50;;;;;;;16.95;68.29;96176.50;5096770;28;20467;-67
2021/07/14 02:36:21;;;;;;;4.57;4.00;;;;;;;16.87;68.94;96166.97;5097755;28;20189;-67
2021/07/14 02:38:53;;;;;;;5.47;3.93;;;;;;;16.85;69.24;96184.88;5096413;28;20200;-68
2021/07/14 02:41:25;;;;;;;5.63;4.00;;;;;;;16.87;69.27;96177.53;5096210;28;20427;-67
2021/07/14 02:44:02;;;;;;;4.97;3.57;;;;;;;17.10;68.29;96176.13;5087799;28;20479;-67
2021/07/14 02:46:30;;;;;;;6.10;3.93;;;;;;;17.16;67.81;96180.53;5097464;28;20439;-68
2021/07/14 02:49:00;;;;;;;5.90;3.70;;;;;;;17.16;67.78;96175.25;5096757;28;20436;-67
2021/07/14 02:51:29;;;;;;;4.20;3.80;;;;;;;17.16;67.63;96176.06;5095702;28;20492;-68
2021/07/14 02:53:56;;;;;;;6.40;3.93;;;;;;;17.09;67.91;96172.66;5095367;28;20439;-66
2021/07/14 02:56:22;;;;;;;8.20;4.00;;;;;;;17.06;67.75;96159.88;5095764;28;20424;-68
2021/07/14 02:58:51;;;;;;;4.93;4.30;;;;;;;16.10;71.95;96162.63;5098006;28;20480;-68
2021/07/14 03:01:17;;;;;;;10.73;4.70;;;;;;;16.38;71.01;96166.72;5094308;28;20538;-67
2021/07/14 03:03:44;;;;;;;4.63;4.23;;;;;;;16.73;69.76;96163.59;5094171;28;20496;-67
2021/07/14 03:06:11;;;;;;;9.90;4.40;;;;;;;16.46;70.84;96163.81;5093900;28;20972;-67
2021/07/14 03:08:37;;;;;;;4.50;4.03;;;;;;;16.72;69.87;96175.22;5094928;28;20454;-67
2021/07/14 03:11:03;;;;;;;9.50;4.43;;;;;;;16.59;70.24;96176.94;5096382;28;20423;-67
2021/07/14 03:13:30;;;;;;;4.57;3.97;;;;;;;16.94;69.10;96166.91;5086837;28;20539;-66
2021/07/14 03:15:56;;;;;;;15.10;4.53;;;;;;;16.90;68.91;96161.22;5096681;28;20420;-68
2021/07/14 03:18:25;;;;;;;4.83;4.43;;;;;;;16.79;69.18;96160.09;5096272;28;20412;-67
2021/07/14 03:20:55;;;;;;;7.07;4.00;;;;;;;16.72;69.11;96156.69;5096094;28;20799;-67
2021/07/14 03:23:21;;;;;;;4.67;3.93;;;;;;;16.40;70.44;96159.41;5092974;28;20950;-67
2021/07/14 03:25:50;;;;;;;5.23;4.20;;;;;;;16.77;69.31;96171.91;5096796;28;20432;-67
2021/07/14 03:28:17;;;;;;;9.50;4.97;;;;;;;16.82;68.92;96180.03;5094857;28;20432;-68
2021/07/14 03:30:48;;;;;;;7.83;4.00;;;;;;;16.83;69.26;96184.28;5096866;28;20516;-67
2021/07/14 03:33:15;;;;;;;11.13;4.30;;;;;;;16.96;68.71;96178.91;5081841;28;20466;-67
2021/07/14 03:35:42;;;;;;;4.47;4.07;;;;;;;16.75;69.00;96180.06;5094526;28;20416;-67
2021/07/14 03:38:10;;;;;;;4.97;3.90;;;;;;;17.00;67.98;96171.34;5096196;28;20439;-67
2021/07/14 03:40:39;;;;;;;7.50;4.10;;;;;;;16.78;68.46;96177.00;5095227;28;20420;-66
2021/07/14 03:43:05;;;;;;;4.57;4.13;;;;;;;16.87;68.31;96166.97;5102693;28;20432;-68
2021/07/14 03:45:31;;;;;;;4.93;3.90;;;;;;;16.81;68.27;96173.09;5082712;28;20426;-67
2021/07/14 03:47:58;;;;;;;4.57;3.80;;;;;;;16.68;68.72;96163.47;5094882;28;20182;-67
2021/07/14 03:50:24;;;;;;;7.27;4.47;;;;;;;16.61;69.26;96176.75;5097945;28;20411;-67
2021/07/14 03:52:49;;;;;;;5.77;4.10;;;;;;;16.84;68.72;96178.75;5078289;28;20891;-67
2021/07/14 03:55:16;;;;;;;9.83;4.33;;;;;;;16.68;68.62;96180.13;5088743;28;20218;-68
2021/07/14 03:57:43;;;;;;;4.10;3.80;;;;;;;16.89;68.23;96183.41;5098603;28;20261;-68
2021/07/14 04:00:09;;;;;;;5.03;3.80;;;;;;;17.10;67.42;96187.53;5101401;28;20420;-67
2021/07/14 04:02:36;;;;;;;5.10;4.10;;;;;;;17.18;67.14;96186.44;5108038;28;20439;-66
2021/07/14 04:05:03;;;;;;;10.97;3.90;;;;;;;17.17;66.89;96185.63;5090267;28;20514;-68
2021/07/14 04:07:29;;;;;;;4.80;4.20;;;;;;;17.24;66.58;96180.28;5100572;28;20430;-67
2021/07/14 04:09:57;;;;;;;4.07;3.60;;;;;;;17.23;66.61;96181.28;5098828;28;20510;-67
2021/07/14 04:12:22;;;;;;;4.43;4.03;;;;;;;17.33;66.36;96192.19;5100145;28;20516;-69
2021/07/14 04:14:48;;;;;;;4.90;3.77;;;;;;;17.01;67.01;96199.41;5103250;28;20443;-69
2021/07/14 04:17:14;;;;;;;6.70;3.80;;;;;;;17.06;67.17;96193.47;5106633;28;20182;-68
2021/07/14 04:19:40;;;;;;;13.13;3.40;;;;;;;16.95;67.51;96184.44;5109476;28;20314;-68
2021/07/14 04:22:07;;;;;;;7.77;4.00;;;;;;;16.97;67.64;96182.34;5104809;28;20174;-68
2021/07/14 04:24:33;;;;;;;12.43;4.20;;;;;;;16.95;67.26;96187.88;5099483;28;20420;-68
2021/07/14 04:26:59;;;;;;;4.60;3.93;;;;;;;16.95;67.24;96185.22;5098907;28;20415;-67
2021/07/14 04:29:25;;;;;;;4.23;3.87;;;;;;;17.10;67.06;96184.88;5098790;28;20645;-68
2021/07/14 04:31:51;;;;;;;9.27;3.73;;;;;;;17.18;66.60;96181.13;5094743;28;20444;-68
2021/07/14 04:34:16;;;;;;;4.53;3.70;;;;;;;17.04;66.78;96183.13;5097755;28;20443;-68
2021/07/14 04:36:42;;;;;;;7.23;3.73;;;;;;;17.22;66.42;96176.19;5098486;28;20938;-67
2021/07/14 04:39:09;;;;;;;10.27;3.90;;;;;;;17.11;66.34;96177.75;5095878;28;20204;-69
2021/07/14 04:41:34;;;;;;;5.10;3.50;;;;;;;17.26;66.36;96180.88;5096618;28;20213;-67
2021/07/14 04:44:03;;;;;;;4.30;3.90;;;;;;;17.16;66.34;96169.94;5096357;28;20432;-67
2021/07/14 04:46:32;;;;;;;5.07;4.30;;;;;;;17.29;65.94;96169.03;5095897;28;20261;-68
2021/07/14 04:48:58;;;;;;;7.43;4.20;;;;;;;16.92;67.80;96169.75;5096720;28;20440;-67
2021/07/14 04:51:25;;;;;;;5.30;3.70;;;;;;;17.04;67.42;96168.03;5096095;28;20813;-67
2021/07/14 04:53:51;;;;;;;5.60;3.90;;;;;;;17.04;67.01;96164.59;5095448;28;20470;-67
2021/07/14 04:56:16;;;;;;;9.93;3.80;;;;;;;16.60;68.71;96164.53;5095317;28;20423;-68
2021/07/14 04:58:46;;;;;;;8.50;4.10;;;;;;;16.07;70.36;96171.81;5095788;28;20204;-65
2021/07/14 05:01:13;;;;;;;5.73;3.60;;;;;;;16.99;67.35;96170.53;5093960;28;20219;-67
2021/07/14 05:03:40;;;;;;;4.07;3.43;;;;;;;16.95;67.36;96161.41;5090650;28;20463;-67
2021/07/14 05:06:05;;;;;;;4.87;3.77;;;;;;;16.83;67.71;96161.28;5096817;28;20447;-67
2021/07/14 05:08:31;;;;;;;6.00;3.77;;;;;;;17.21;66.75;96172.75;5102460;28;20483;-67
2021/07/14 05:10:56;;;;;;;3.40;3.20;;;;;;;17.43;65.91;96159.06;5099009;28;20182;-67
2021/07/14 05:13:22;;;;;;;3.40;3.20;;;;;;;17.53;65.58;96158.56;5094561;28;20607;-68
2021/07/14 05:15:47;;;;;;;4.53;4.13;;;;;;;17.53;64.96;96163.88;5096357;28;20555;-67
2021/07/14 05:18:13;;;;;;;5.73;3.73;;;;;;;17.55;65.04;96157.31;5096119;28;20192;-68
2021/07/14 05:20:40;;;;;;;3.80;3.50;;;;;;;17.60;64.96;96160.09;5096660;28;20177;-67
2021/07/14 05:23:06;;;;;;;3.60;3.30;;;;;;;17.52;64.99;96167.53;5096195;28;20476;-68
2021/07/14 05:25:33;;;;;;;4.13;3.83;;;;;;;17.72;64.51;96154.84;5095943;28;20412;-67
2021/07/14 05:27:58;;;;;;;3.97;3.57;;;;;;;17.65;64.67;96160.22;5095094;28;20443;-68
2021/07/14 05:30:24;;;;;;;6.40;3.40;;;;;;;17.42;65.77;96165.41;5096586;28;20423;-68
2021/07/14 05:32:49;;;;;;;4.90;4.00;;;;;;;16.92;67.32;96177.69;5094469;28;20212;-68
2021/07/14 05:35:15;;;;;;;4.30;3.87;;;;;;;17.03;66.43;96168.25;5094256;28;20247;-67
2021/07/14 05:37:40;;;;;;;4.63;4.00;;;;;;;16.48;69.31;96160.97;5099123;28;20187;-67
2021/07/14 05:40:07;;;;;;;5.10;4.07;;;;;;;16.88;67.73;96161.44;5094563;28;20617;-68
2021/07/14 05:42:33;;;;;;;6.50;3.97;;;;;;;17.17;66.82;96171.56;5094677;28;20197;-70
2021/07/14 05:44:58;;;;;;;6.30;4.27;;;;;;;17.33;66.43;96175.47;5091579;28;20531;-66
2021/07/14 05:47:24;;;;;;;8.80;4.03;;;;;;;17.54;65.54;96174.22;5093794;28;20185;-68
2021/07/14 05:49:49;;;;;;;10.93;3.70;;;;;;;17.80;64.38;96166.97;5102479;28;20187;-67
2021/07/14 05:52:15;;;;;;;8.50;5.00;;;;;;;17.71;64.40;96166.47;5096450;28;20583;-68
2021/07/14 05:54:42;;;;;;;6.20;3.40;;;;;;;17.99;63.79;96172.28;5095310;28;20178;-68
2021/07/14 05:57:07;;;;;;;4.73;4.33;;;;;;;17.58;64.37;96170.09;5095438;28;20589;-68
2021/07/14 05:59:33;;;;;;;7.23;3.60;;;;;;;17.24;66.08;96182.09;5096356;28;20420;-68
2021/07/14 06:01:59;;;;;;;5.90;4.00;;;;;;;17.39;65.82;96179.09;5095682;28;20197;-67
2021/07/14 06:04:24;;;;;;;9.23;3.67;;;;;;;17.54;64.69;96176.06;5095260;28;20228;-67
2021/07/14 06:06:50;;;;;;;3.47;3.27;;;;;;;17.55;65.04;96164.44;5094657;28;20190;-67
2021/07/14 06:09:15;;;;;;;4.87;3.87;;;;;;;17.57;64.51;96165.84;5095525;28;20282;-68
2021/07/14 06:11:41;;;;;;;10.00;3.47;;;;;;;17.76;63.99;96169.28;5096008;28;20197;-67
2021/07/14 06:14:07;;;;;;;4.90;4.00;;;;;;;18.00;63.54;96172.06;5094881;28;20262;-68
2021/07/14 06:16:33;;;;;;;4.47;3.83;;;;;;;17.88;64.00;96172.00;5089861;28;20574;-67
2021/07/14 06:18:58;;;;;;;4.20;3.90;;;;;;;16.85;67.86;96179.59;5093835;28;20431;-68
2021/07/14 06:21:24;;;;;;;6.00;4.00;;;;;;;17.28;65.97;96184.09;5092749;28;20185;-67
2021/07/14 06:23:50;;;;;;;4.23;3.30;;;;;;;17.40;65.70;96186.00;5093786;28;20604;-66
2021/07/14 06:26:16;;;;;;;7.40;3.47;;;;;;;17.76;64.50;96189.69;5094627;28;20185;-68
2021/07/14 06:28:42;;;;;;;8.70;4.13;;;;;;;18.06;63.51;96186.25;5094599;28;20439;-68
2021/07/14 06:31:07;;;;;;;4.60;4.20;;;;;;;18.22;63.12;96193.56;5096359;28;20177;-68
2021/07/14 06:33:36;;;;;;;4.70;3.90;;;;;;;18.39;62.71;96188.44;5093013;28;20235;-68
2021/07/14 06:36:03;;;;;;;3.23;2.93;;;;;;;18.30;62.54;96194.28;5097560;28;20185;-68
2021/07/14 06:38:29;;;;;;;3.80;3.50;;;;;;;17.77;64.00;96183.31;5097686;28;20435;-67
2021/07/14 06:40:56;;;;;;;7.10;3.60;;;;;;;17.53;65.26;96190.34;5087414;28;20938;-68
2021/07/14 06:43:21;;;;;;;5.50;3.63;;;;;;;17.95;63.83;96182.50;5095090;28;20435;-68
2021/07/14 06:45:47;;;;;;;4.20;3.80;;;;;;;17.91;64.26;96186.63;5090342;28;20476;-66
2021/07/14 06:48:14;;;;;;;6.80;3.97;;;;;;;18.41;62.79;96188.19;5095522;28;20691;-68
2021/07/14 06:50:40;;;;;;;6.30;3.60;;;;;;;18.71;61.88;96184.69;5095022;28;20191;-68
2021/07/14 06:53:06;;;;;;;6.07;4.13;;;;;;;18.43;62.22;96183.47;5092811;28;20460;-68
2021/07/14 06:55:33;;;;;;;4.40;4.00;;;;;;;18.50;61.93;96184.22;5095549;28;20427;-66
2021/07/14 06:57:59;;;;;;;3.40;3.10;;;;;;;18.43;62.24;96178.19;5094302;28;20648;-67
2021/07/14 07:00:25;;;;;;;3.80;3.50;;;;;;;18.73;61.67;96182.63;5089914;28;20531;-68
2021/07/14 07:02:50;;;;;;;4.33;3.87;;;;;;;18.88;61.34;96176.84;5092105;28;20468;-68
2021/07/14 07:05:16;;;;;;;5.90;3.80;;;;;;;18.79;61.57;96168.41;5090618;28;20221;-68
2021/07/14 07:07:41;;;;;;;8.13;3.63;;;;;;;18.82;61.64;96181.22;5091746;28;20181;-70
2021/07/14 07:10:10;;;;;;;4.50;3.50;;;;;;;18.95;61.51;96176.75;5097475;28;20189;-69
2021/07/14 07:12:36;;;;;;;5.30;3.30;;;;;;;18.92;61.53;96174.53;5086664;28;20653;-67
2021/07/14 07:15:03;;;;;;;5.80;3.33;;;;;;;18.86;61.21;96171.78;5085927;28;20500;-69
2021/07/14 07:17:29;;;;;;;6.80;3.50;;;;;;;18.24;62.89;96170.31;5090803;28;20182;-66
2021/07/14 07:19:54;;;;;;;3.87;3.30;;;;;;;18.83;61.52;96166.13;5091673;28;20514;-67
2021/07/14 07:22:20;;;;;;;6.53;3.40;;;;;;;18.93;60.91;96176.16;5091013;28;20185;-68
2021/07/14 07:24:45;;;;;;;7.57;3.93;;;;;;;18.78;61.72;96168.66;5091577;28;20187;-67
2021/07/14 07:27:11;;;;;;;11.13;3.43;;;;;;;19.11;60.75;96165.47;5098299;28;20664;-68
2021/07/14 07:29:38;;;;;;;5.60;3.60;;;;;;;18.97;60.51;96170.19;5097713;28;20191;-68
2021/07/14 07:32:04;;;;;;;6.20;3.90;;;;;;;18.16;63.93;96167.16;5095300;28;20205;-69
2021/07/14 07:34:29;;;;;;;9.10;4.40;;;;;;;18.90;61.37;96176.63;5094039;28;20723;-68
2021/07/14 07:36:55;;;;;;;8.43;3.63;;;;;;;19.00;61.10;96183.00;5092590;28;20421;-68
2021/07/14 07:39:21;;;;;;;6.20;3.20;;;;;;;18.94;60.93;96188.41;5093392;28;20209;-68
2021/07/14 07:41:47;;;;;;;6.60;3.40;;;;;;;19.16;60.38;96188.66;5076067;28;20212;-67
2021/07/14 07:44:13;;;;;;;3.90;3.60;;;;;;;19.58;59.66;96198.31;5091165;28;20546;-70
2021/07/14 07:46:41;;;;;;;4.97;3.63;;;;;;;19.44;59.70;96200.41;5084159;28;20447;-67
2021/07/14 07:49:07;;;;;;;5.90;4.17;;;;;;;19.66;59.04;96197.94;5094233;28;20193;-70
2021/07/14 07:51:34;;;;;;;6.87;3.33;;;;;;;19.57;59.06;96200.16;5095695;28;20429;-69
2021/07/14 07:54:00;;;;;;;6.00;3.90;;;;;;;19.67;59.10;96193.44;5093135;28;20469;-71
2021/07/14 07:56:31;;;;;;;8.90;3.33;;;;;;;19.72;58.96;96204.19;5096842;28;20420;-69
2021/07/14 07:58:58;;;;;;;8.43;3.60;;;;;;;19.08;61.21;96195.13;5077168;28;20419;-69
2021/07/14 08:01:23;;;;;;;4.30;3.50;;;;;;;18.90;61.07;96192.56;5093935;28;20427;-69
2021/07/14 08:03:49;;;;;;;5.03;3.60;;;;;;;19.18;61.06;96187.38;5094492;28;20446;-69
2021/07/14 08:06:14;;;;;;;5.27;3.37;;;;;;;18.99;61.56;96196.50;5093786;28;20225;-70
2021/07/14 08:08:40;;;;;;;3.40;3.10;;;;;;;18.84;61.63;96200.41;5094901;28;20177;-68
2021/07/14 08:11:08;;;;;;;8.47;3.90;;;;;;;18.82;62.31;96210.44;5099278;28;20188;-68
2021/07/14 08:13:35;;;;;;;6.13;3.63;;;;;;;18.68;63.04;96223.09;5097554;28;20706;-68
2021/07/14 08:16:00;;;;;;;4.60;3.10;;;;;;;19.45;60.98;96224.09;5090131;28;20427;-70
2021/07/14 08:18:26;;;;;;;5.37;3.53;;;;;;;19.70;60.33;96233.63;5093599;28;20918;-70
2021/07/14 08:20:53;;;;;;;6.13;3.90;;;;;;;19.69;60.14;96242.66;5094987;28;20190;-68
2021/07/14 08:23:20;;;;;;;4.10;3.70;;;;;;;19.91;59.38;96245.53;5095672;28;20309;-69
2021/07/14 08:25:47;;;;;;;5.23;3.60;;;;;;;19.89;59.27;96249.47;5101183;28;20921;-70
2021/07/14 08:28:13;;;;;;;4.30;3.53;;;;;;;20.04;59.10;96243.63;5102623;28;20436;-70
2021/07/14 08:30:39;;;;;;;5.27;3.33;;;;;;;19.99;58.74;96239.03;5096865;28;20418;-69
2021/07/14 08:33:05;;;;;;;6.67;3.30;;;;;;;19.89;59.06;96241.50;5099912;28;20460;-70
2021/07/14 08:35:33;;;;;;;7.43;3.93;;;;;;;20.20;58.59;96234.91;5102278;28;20515;-70
2021/07/14 08:37:59;;;;;;;8.60;3.90;;;;;;;20.30;58.90;96233.47;5108586;28;20203;-68
2021/07/14 08:40:24;;;;;;;4.13;3.73;;;;;;;20.40;58.28;96239.81;5109527;28;20432;-69
2021/07/14 08:42:55;;;;;;;4.13;3.27;;;;;;;20.16;59.01;96232.97;5109491;28;20197;-69
2021/07/14 08:45:22;;;;;;;7.83;3.30;;;;;;;20.26;58.31;96233.94;5103121;28;20206;-69
2021/07/14 08:47:48;;;;;;;5.17;4.10;;;;;;;20.25;58.61;96229.66;5108452;28;20971;-68
2021/07/14 08:50:14;;;;;;;4.20;3.60;;;;;;;20.54;57.91;96245.63;5109413;28;20221;-70
2021/07/14 08:52:42;;;;;;;9.13;4.13;;;;;;;20.25;58.29;96248.28;5078382;28;20304;-69
2021/07/14 08:55:12;;;;;;;3.40;3.10;;;;;;;19.47;59.99;96264.50;5094875;28;20455;-69
2021/07/14 08:57:38;;;;;;;7.53;4.20;;;;;;;20.14;58.74;96265.09;5094659;28;20440;-70
2021/07/14 09:00:12;;;;;;;4.00;3.53;;;;;;;20.21;58.31;96271.09;5094339;28;20431;-68
2021/07/14 09:02:39;;;;;;;4.77;4.00;;;;;;;20.26;57.57;96273.06;5093477;28;20542;-70
2021/07/14 09:05:06;;;;;;;7.93;4.10;;;;;;;19.66;59.35;96277.66;5094076;28;20424;-70
2021/07/14 09:07:31;;;;;;;4.40;4.00;;;;;;;19.83;58.35;96272.44;5094859;28;20481;-68
2021/07/14 09:09:57;;;;;;;5.40;4.07;;;;;;;19.63;58.61;96270.97;5094909;28;20427;-70
2021/07/14 09:12:37;;;;;;;4.00;3.53;;;;;;;18.99;60.96;96257.56;5096437;28;20201;-68
2021/07/14 09:15:08;;;;;;;8.70;4.33;;;;;;;19.70;59.66;96254.09;5088059;28;20184;-70
2021/07/14 09:17:33;;;;;;;6.33;4.67;;;;;;;19.99;58.38;96262.13;5094841;28;20480;-69
2021/07/14 09:20:03;;;;;;;7.17;3.93;;;;;;;19.42;60.42;96258.28;5093250;28;20435;-68
2021/07/14 09:22:32;;;;;;;5.30;4.57;;;;;;;20.21;58.52;96259.66;5086465;28;20578;-70
2021/07/14 09:24:58;;;;;;;6.23;3.33;;;;;;;20.49;57.36;96263.34;5093388;28;20423;-69
2021/07/14 09:27:35;;;;;;;4.67;3.60;;;;;;;20.59;56.83;96252.88;5093699;28;20431;-69
2021/07/14 09:30:08;;;;;;;4.03;3.50;;;;;;;20.14;57.71;96253.66;5093669;28;20276;-70
2021/07/14 09:32:58;;;;;;;6.03;3.37;;;;;;;20.34;57.19;96259.38;5093462;28;20517;-69
2021/07/14 09:35:44;;;;;;;3.60;3.30;;;;;;;20.29;58.10;96256.59;5093510;28;20554;-69
2021/07/14 09:38:10;;;;;;;7.70;3.37;;;;;;;20.60;57.00;96256.38;5093151;28;20541;-68
2021/07/14 09:40:38;;;;;;;5.27;3.53;;;;;;;20.08;58.38;96250.09;5093357;28;20420;-69
2021/07/14 09:43:06;;;;;;;5.07;3.80;;;;;;;20.10;58.44;96256.78;5092598;28;20202;-69
2021/07/14 09:45:50;;;;;;;4.40;4.00;;;;;;;20.63;56.79;96250.56;5069998;28;20431;-70
2021/07/14 09:48:17;;;;;;;9.53;3.77;;;;;;;20.89;56.30;96245.69;5091838;28;20423;-69
2021/07/14 09:50:50;;;;;;;5.33;3.43;;;;;;;20.19;57.89;96241.28;5092538;28;20439;-69
2021/07/14 09:53:19;;;;;;;3.87;3.57;;;;;;;20.15;58.45;96255.28;5092629;28;20905;-68
2021/07/14 09:55:48;;;;;;;5.23;3.30;;;;;;;20.56;57.00;96250.69;5092744;28;20938;-67
2021/07/14 09:58:25;;;;;;;3.70;3.23;;;;;;;20.44;57.43;96248.09;5092626;28;20434;-68
2021/07/14 10:01:02;;;;;;;3.73;3.40;;;;;;;20.61;56.49;96257.97;5092437;28;20846;-69
2021/07/14 10:03:32;;;;;;;8.23;3.70;;;;;;;21.37;54.81;96259.47;5084146;28;20446;-70
2021/07/14 10:06:01;;;;;;;3.30;3.00;;;;;;;21.57;53.64;96258.94;5092660;28;20419;-69
2021/07/14 10:08:28;;;;;;;4.07;2.77;;;;;;;20.52;56.00;96255.69;5092242;28;20423;-70
2021/07/14 10:11:12;;;;;;;4.37;3.10;;;;;;;20.40;56.99;96257.59;5090726;28;20419;-69
2021/07/14 10:13:59;;;;;;;6.03;3.70;;;;;;;21.07;54.48;96264.09;5085123;28;20463;-69
2021/07/14 10:16:37;;;;;;;4.80;3.30;;;;;;;21.16;54.66;96261.84;5085378;28;20480;-70
2021/07/14 10:19:11;;;;;;;2.90;2.70;;;;;;;22.07;52.41;96265.19;5092344;28;21129;-67
2021/07/14 10:21:47;;;;;;;8.53;3.20;;;;;;;21.94;53.19;96263.72;5090636;28;20504;-69
2021/07/14 10:24:15;;;;;;;3.73;2.60;;;;;;;21.08;55.47;96279.03;5091955;28;20526;-68
2021/07/14 10:26:44;;;;;;;4.73;2.40;;;;;;;22.25;52.13;96270.22;5092085;28;20432;-68
2021/07/14 10:29:10;;;;;;;2.87;2.53;;;;;;;22.02;51.92;96273.16;5091900;28;20992;-69
2021/07/14 10:31:37;;;;;;;6.23;2.67;;;;;;;21.90;51.82;96274.09;5092485;28;20416;-69
2021/07/14 10:34:08;;;;;;;5.10;3.00;;;;;;;21.98;52.03;96275.53;5091176;28;20459;-69
2021/07/14 10:36:37;;;;;;;5.23;2.53;;;;;;;21.67;52.86;96268.97;5091377;28;20424;-69
2021/07/14 10:39:02;;;;;;;2.40;2.20;;;;;;;21.49;52.98;96273.50;5091159;28;20506;-70
2021/07/14 10:41:29;;;;;;;2.40;2.20;;;;;;;21.82;52.29;96265.69;5091510;28;20426;-69
2021/07/14 10:43:56;;;;;;;6.20;2.90;;;;;;;21.58;53.07;96269.34;5091233;28;20660;-69
2021/07/14 10:46:25;;;;;;;2.47;2.10;;;;;;;22.09;51.19;96274.59;5068304;28;20980;-68
2021/07/14 10:48:55;;;;;;;2.07;1.87;;;;;;;22.02;51.40;96273.16;5090031;28;20501;-68
2021/07/14 10:51:22;;;;;;;3.20;2.10;;;;;;;22.63;50.15;96274.91;5091247;28;20452;-70
2021/07/14 10:53:51;;;;;;;4.63;2.17;;;;;;;22.98;49.93;96265.59;5090967;28;20463;-69
2021/07/14 10:56:17;;;;;;;3.07;2.30;;;;;;;22.88;49.29;96268.19;5091282;28;20435;-69
2021/07/14 10:58:44;;;;;;;2.53;1.97;;;;;;;23.61;46.76;96271.16;5089276;28;20416;-68
2021/07/14 11:01:10;;;;;;;2.80;1.77;;;;;;;23.35;46.34;96267.50;5090553;28;20450;-68
2021/07/14 11:03:45;;;;;;;3.63;2.10;;;;;;;23.75;46.19;96273.38;5091354;28;20797;-69
2021/07/14 11:06:13;;;;;;;3.63;1.90;;;;;;;23.69;45.66;96269.03;5090576;28;20557;-69
2021/07/14 11:08:44;;;;;;;1.47;1.37;;;;;;;22.88;45.27;96281.53;5091699;28;20955;-67
2021/07/14 11:11:11;;;;;;;1.70;1.60;;;;;;;22.99;44.64;96272.56;5092927;28;20724;-69
2021/07/14 11:13:40;;;;;;;3.10;2.13;;;;;;;23.60;44.47;96268.72;5091765;28;20982;-69
2021/07/14 11:16:23;;;;;;;1.90;1.70;;;;;;;23.46;44.32;96277.19;5085565;28;20462;-69
2021/07/14 11:19:03;;;;;;;3.23;1.47;;;;;;;24.15;42.10;96265.78;5092014;28;20928;-70
2021/07/14 11:21:55;;;;;;;1.93;1.57;;;;;;;22.89;45.27;96272.47;5092120;28;20447;-68
2021/07/14 11:24:36;;;;;;;2.97;1.40;;;;;;;24.31;42.67;96274.66;5091436;28;20439;-68
2021/07/14 11:27:20;;;;;;;3.90;2.80;;;;;;;25.44;40.34;96269.44;5092573;28;20426;-68
2021/07/14 11:29:46;;;;;;;2.13;1.70;;;;;;;25.43;40.21;96267.03;5092555;28;20475;-68
2021/07/14 11:32:34;;;;;;;1.80;1.70;;;;;;;25.45;39.20;96264.91;5093103;28;20559;-70
2021/07/14 11:35:15;;;;;;;3.73;1.40;;;;;;;25.42;38.59;96260.06;5092509;28;20547;-69
2021/07/14 11:37:55;;;;;;;2.00;1.83;;;;;;;26.02;38.13;96259.34;5091923;28;20407;-69
2021/07/14 11:40:21;;;;;;;1.60;1.50;;;;;;;25.55;38.31;96259.50;5090823;28;21060;-69
2021/07/14 11:42:52;;;;;;;2.20;1.60;;;;;;;25.46;39.11;96258.44;5090023;28;20432;-68
2021/07/14 11:45:35;;;;;;;7.90;1.30;;;;;;;23.63;42.82;96265.53;5086714;28;20178;-69